createdAt,value
2022-11-25T00:01:18.571Z,100.00
2022-11-25T00:03:46.338Z,100.00
2022-11-25T00:06:22.772Z,100.00
2022-11-25T00:08:51.618Z,100.00
2022-11-25T00:11:18.449Z,100.00
2022-11-25T00:13:46.410Z,100.00
2022-11-25T00:16:16.049Z,100.00
2022-11-25T00:18:50.731Z,100.00
2022-11-25T00:21:19.827Z,100.00
2022-11-25T00:23:52.465Z,100.00
2022-11-25T00:26:19.505Z,100.00
2022-11-25T00:28:47.127Z,100.00
2022-11-25T00:31:19.745Z,100.00
2022-11-25T00:33:47.088Z,100.00
2022-11-25T00:36:22.434Z,100.00
2022-11-25T00:38:53.867Z,100.00
2022-11-25T00:41:39.394Z,100.00
2022-11-25T00:44:24.495Z,100.00
2022-11-25T00:46:51.003Z,100.00
2022-11-25T00:49:17.361Z,100.00
2022-11-25T00:51:43.765Z,100.00
2022-11-25T00:54:10.305Z,100.00
2022-11-25T00:56:36.659Z,100.00
2022-11-25T00:59:03.513Z,100.00
2022-11-25T01:01:30.156Z,100.00
2022-11-25T01:03:56.759Z,100.00
2022-11-25T01:06:23.414Z,100.00
2022-11-25T01:08:50.522Z,100.00
2022-11-25T01:11:18.952Z,100.00
2022-11-25T01:13:45.888Z,100.00
2022-11-25T01:16:15.878Z,100.00
2022-11-25T01:18:43.124Z,100.00
2022-11-25T01:21:16.129Z,100.00
2022-11-25T01:23:43.371Z,100.00
2022-11-25T01:26:14.830Z,100.00
2022-11-25T01:28:41.717Z,100.00
2022-11-25T01:31:14.619Z,100.00
2022-11-25T01:33:41.549Z,100.00
2022-11-25T01:36:11.889Z,100.00
2022-11-25T01:38:38.712Z,100.00
2022-11-25T01:41:07.625Z,100.00
2022-11-25T01:43:34.654Z,100.00
2022-11-25T01:46:25.635Z,100.00
2022-11-25T01:48:58.785Z,100.00
2022-11-25T01:51:40.509Z,100.00
2022-11-25T01:54:10.842Z,100.00
2022-11-25T01:56:43.697Z,100.00
2022-11-25T01:59:10.709Z,100.00
2022-11-25T02:01:37.152Z,100.00
2022-11-25T02:04:04.327Z,100.00
2022-11-25T02:06:40.533Z,100.00
2022-11-25T02:09:08.723Z,100.00
2022-11-25T02:11:38.785Z,100.00
2022-11-25T02:14:07.003Z,100.00
2022-11-25T02:16:33.542Z,100.00
2022-11-25T02:19:00.098Z,100.00
2022-11-25T02:21:42.029Z,100.00
2022-11-25T02:24:28.811Z,100.00
2022-11-25T02:26:55.534Z,100.00
2022-11-25T02:29:22.546Z,100.00
2022-11-25T02:31:51.332Z,100.00
2022-11-25T02:34:17.735Z,100.00
2022-11-25T02:36:44.223Z,100.00
2022-11-25T02:39:11.936Z,100.00
2022-11-25T02:41:57.768Z,100.00
2022-11-25T02:44:24.728Z,100.00
2022-11-25T02:46:51.268Z,100.00
2022-11-25T02:49:17.636Z,100.00
2022-11-25T02:51:45.736Z,100.00
2022-11-25T02:54:16.414Z,100.00
2022-11-25T02:56:43.520Z,100.00
2022-11-25T02:59:10.741Z,100.00
2022-11-25T03:01:38.683Z,100.00
2022-11-25T03:04:05.940Z,100.00
2022-11-25T03:06:32.822Z,100.00
2022-11-25T03:08:59.650Z,100.00
2022-11-25T03:11:46.188Z,100.00
2022-11-25T03:14:12.756Z,100.00
2022-11-25T03:16:39.341Z,100.00
2022-11-25T03:19:06.111Z,100.00
2022-11-25T03:21:32.616Z,100.00
2022-11-25T03:23:59.134Z,100.00
2022-11-25T03:26:26.265Z,100.00
2022-11-25T03:28:53.012Z,100.00
2022-11-25T03:31:19.743Z,100.00
2022-11-25T03:33:46.275Z,100.00
2022-11-25T03:36:12.710Z,100.00
2022-11-25T03:38:39.061Z,100.00
2022-11-25T03:41:05.814Z,100.00
2022-11-25T03:43:33.158Z,100.00
2022-11-25T03:45:59.698Z,100.00
2022-11-25T03:48:26.085Z,100.00
2022-11-25T03:50:52.577Z,100.00
2022-11-25T03:53:19.016Z,100.00
2022-11-25T03:55:47.924Z,100.00
2022-11-25T03:58:14.429Z,100.00
2022-11-25T04:00:40.935Z,100.00
2022-11-25T04:03:07.427Z,100.00
2022-11-25T04:05:33.921Z,100.00
2022-11-25T04:08:00.454Z,100.00
2022-11-25T04:10:26.866Z,100.00
2022-11-25T04:12:54.365Z,100.00
2022-11-25T04:15:21.701Z,100.00
2022-11-25T04:17:48.204Z,100.00
2022-11-25T04:20:15.470Z,100.00
2022-11-25T04:22:42.031Z,100.00
2022-11-25T04:25:09.309Z,100.00
2022-11-25T04:27:35.995Z,100.00
2022-11-25T04:30:02.516Z,100.00
2022-11-25T04:32:28.857Z,100.00
2022-11-25T04:34:55.395Z,100.00
2022-11-25T04:37:21.954Z,100.00
2022-11-25T04:39:48.302Z,100.00
2022-11-25T04:42:32.852Z,100.00
2022-11-25T04:45:22.101Z,100.00
2022-11-25T04:47:47.335Z,100.00
2022-11-25T04:50:19.964Z,100.00
2022-11-25T04:52:46.470Z,100.00
2022-11-25T04:55:13.069Z,100.00
2022-11-25T04:57:39.627Z,100.00
2022-11-25T05:00:07.593Z,100.00
2022-11-25T05:02:34.155Z,100.00
2022-11-25T05:05:00.998Z,100.00
2022-11-25T05:07:28.646Z,100.00
2022-11-25T05:09:55.241Z,100.00
2022-11-25T05:12:24.706Z,100.00
2022-11-25T05:14:51.438Z,100.00
2022-11-25T05:17:20.622Z,100.00
2022-11-25T05:19:47.813Z,100.00
2022-11-25T05:22:16.344Z,100.00
2022-11-25T05:24:42.855Z,100.00
2022-11-25T05:27:10.077Z,100.00
2022-11-25T05:29:37.305Z,100.00
2022-11-25T05:32:05.116Z,100.00
2022-11-25T05:34:31.665Z,100.00
2022-11-25T05:36:58.735Z,100.00
2022-11-25T05:39:25.477Z,100.00
2022-11-25T05:41:52.047Z,100.00
2022-11-25T05:44:22.820Z,100.00
2022-11-25T05:46:49.735Z,100.00
2022-11-25T05:49:17.226Z,100.00
2022-11-25T05:51:43.921Z,100.00
2022-11-25T05:54:10.489Z,100.00
2022-11-25T05:56:36.973Z,100.00
2022-11-25T05:59:04.183Z,100.00
2022-11-25T06:01:30.968Z,100.00
2022-11-25T06:04:02.161Z,100.00
2022-11-25T06:06:28.754Z,100.00
2022-11-25T06:08:55.250Z,100.00
2022-11-25T06:11:22.282Z,100.00
2022-11-25T06:13:48.772Z,100.00
2022-11-25T06:16:17.972Z,100.00
2022-11-25T06:18:44.687Z,100.00
2022-11-25T06:21:11.737Z,100.00
2022-11-25T06:23:39.297Z,100.00
2022-11-25T06:26:07.579Z,100.00
2022-11-25T06:28:34.194Z,100.00
2022-11-25T06:31:13.362Z,100.00
2022-11-25T06:33:40.531Z,100.00
2022-11-25T06:36:08.702Z,100.00
2022-11-25T06:38:35.501Z,100.00
2022-11-25T06:41:03.978Z,100.00
2022-11-25T06:43:31.219Z,100.00
2022-11-25T06:46:12.933Z,100.00
2022-11-25T06:48:40.140Z,100.00
2022-11-25T06:51:11.227Z,100.00
2022-11-25T06:53:38.872Z,100.00
2022-11-25T06:56:07.650Z,100.00
2022-11-25T06:58:36.690Z,100.00
2022-11-25T07:01:06.418Z,100.00
2022-11-25T07:03:32.929Z,100.00
2022-11-25T07:06:00.720Z,100.00
2022-11-25T07:08:33.541Z,100.00
2022-11-25T07:11:10.573Z,100.00
2022-11-25T07:13:36.977Z,100.00
2022-11-25T07:16:06.073Z,100.00
2022-11-25T07:18:34.881Z,100.00
2022-11-25T07:21:03.390Z,100.00
2022-11-25T07:23:29.807Z,100.00
2022-11-25T07:26:00.891Z,100.00
2022-11-25T07:28:28.032Z,100.00
2022-11-25T07:31:22.878Z,100.00
2022-11-25T07:33:40.900Z,100.00
2022-11-25T07:36:09.504Z,100.00
2022-11-25T07:38:36.620Z,100.00
2022-11-25T07:41:23.642Z,100.00
2022-11-25T07:43:52.672Z,100.00
2022-11-25T07:46:26.804Z,100.00
2022-11-25T07:48:56.553Z,100.00
2022-11-25T07:51:47.495Z,100.00
2022-11-25T07:54:14.508Z,100.00
2022-11-25T07:56:42.854Z,100.00
2022-11-25T07:59:13.309Z,100.00
2022-11-25T08:01:40.820Z,100.00
2022-11-25T08:04:09.139Z,100.00
2022-11-25T08:06:39.570Z,100.00
2022-11-25T08:09:06.694Z,100.00
2022-11-25T08:11:33.381Z,100.00
2022-11-25T08:14:00.046Z,100.00
2022-11-25T08:16:28.645Z,100.00
2022-11-25T08:18:56.108Z,100.00
2022-11-25T08:21:22.800Z,100.00
2022-11-25T08:23:49.220Z,100.00
2022-11-25T08:26:21.224Z,100.00
2022-11-25T08:28:48.010Z,100.00
2022-11-25T08:31:18.476Z,100.00
2022-11-25T08:33:45.416Z,100.00
2022-11-25T08:36:12.709Z,100.00
2022-11-25T08:38:40.462Z,100.00
2022-11-25T08:41:28.883Z,100.00
2022-11-25T08:43:56.293Z,100.00
2022-11-25T08:46:26.694Z,100.00
2022-11-25T08:48:54.344Z,100.00
2022-11-25T08:51:25.164Z,100.00
2022-11-25T08:53:52.427Z,100.00
2022-11-25T08:56:26.054Z,100.00
2022-11-25T08:58:54.009Z,100.00
2022-11-25T09:01:21.509Z,100.00
2022-11-25T09:03:50.594Z,100.00
2022-11-25T09:06:18.379Z,100.00
2022-11-25T09:08:45.565Z,100.00
2022-11-25T09:11:13.052Z,100.00
2022-11-25T09:13:39.787Z,100.00
2022-11-25T09:16:07.198Z,100.00
2022-11-25T09:18:35.449Z,100.00
2022-11-25T09:21:10.933Z,100.00
2022-11-25T09:23:39.360Z,100.00
2022-11-25T09:26:07.315Z,100.00
2022-11-25T09:28:34.722Z,100.00
2022-11-25T09:31:07.389Z,100.00
2022-11-25T09:33:34.000Z,100.00
2022-11-25T09:36:01.641Z,100.00
2022-11-25T09:38:28.146Z,100.00
2022-11-25T09:41:16.490Z,100.00
2022-11-25T09:44:37.236Z,100.00
2022-11-25T09:47:20.792Z,100.00
2022-11-25T09:50:12.962Z,100.00
2022-11-25T09:52:56.277Z,100.00
2022-11-25T09:55:25.750Z,100.00
2022-11-25T09:57:59.665Z,100.00
2022-11-25T10:00:33.860Z,100.00
2022-11-25T10:03:27.963Z,100.00
2022-11-25T10:06:03.460Z,100.00
2022-11-25T10:08:39.986Z,100.00
2022-11-25T10:11:22.701Z,100.00
2022-11-25T10:13:53.022Z,100.00
2022-11-25T10:16:41.215Z,100.00
2022-11-25T10:19:19.932Z,100.00
2022-11-25T10:21:46.786Z,100.00
2022-11-25T10:24:17.434Z,100.00
2022-11-25T10:26:47.786Z,100.00
2022-11-25T10:29:14.057Z,100.00
2022-11-25T10:31:43.740Z,100.00
2022-11-25T10:34:15.060Z,100.00
2022-11-25T10:36:43.367Z,100.00
2022-11-25T10:39:28.076Z,100.00
2022-11-25T10:42:07.224Z,100.00
2022-11-25T10:44:40.300Z,100.00
2022-11-25T10:47:33.184Z,100.00
2022-11-25T10:50:21.563Z,100.00
2022-11-25T10:52:55.938Z,100.00
2022-11-25T10:55:26.336Z,100.00
2022-11-25T10:57:54.247Z,100.00
2022-11-25T11:00:37.624Z,100.00
2022-11-25T11:03:26.696Z,100.00
2022-11-25T11:05:54.613Z,100.00
2022-11-25T11:08:28.800Z,100.00
2022-11-25T11:11:16.755Z,100.00
2022-11-25T11:13:44.242Z,100.00
2022-11-25T11:16:25.034Z,100.00
2022-11-25T11:18:51.726Z,100.00
2022-11-25T11:21:22.976Z,100.00
2022-11-25T11:23:54.681Z,100.00
2022-11-25T11:26:24.964Z,100.00
2022-11-25T11:29:16.998Z,100.00
2022-11-25T11:31:58.297Z,100.00
2022-11-25T11:34:43.194Z,100.00
2022-11-25T11:37:15.733Z,100.00
2022-11-25T11:40:03.763Z,98.19
2022-11-25T11:42:56.254Z,98.36
2022-11-25T11:45:25.591Z,90.01
2022-11-25T11:48:16.111Z,94.39
2022-11-25T11:50:47.463Z,99.32
2022-11-25T11:53:51.719Z,97.07
2022-11-25T11:56:41.348Z,84.15
2022-11-25T11:59:35.597Z,89.91
2022-11-25T12:02:16.729Z,93.93
2022-11-25T12:04:58.014Z,100.00
2022-11-25T12:07:29.916Z,100.00
2022-11-25T12:10:10.089Z,100.00
2022-11-25T12:12:40.869Z,100.00
2022-11-25T12:15:19.246Z,100.00
2022-11-25T12:17:54.663Z,100.00
2022-11-25T12:20:38.905Z,100.00
2022-11-25T12:23:29.791Z,100.00
2022-11-25T12:26:02.812Z,100.00
2022-11-25T12:28:45.565Z,100.00
2022-11-25T12:31:16.538Z,100.00
2022-11-25T12:34:14.168Z,100.00
2022-11-25T12:36:45.655Z,100.00
2022-11-25T12:39:28.305Z,100.00
2022-11-25T12:42:12.432Z,100.00
2022-11-25T12:44:51.614Z,100.00
2022-11-25T12:47:18.160Z,100.00
2022-11-25T12:49:49.174Z,100.00
2022-11-25T12:52:43.528Z,100.00
2022-11-25T12:55:29.131Z,100.00
2022-11-25T12:58:15.160Z,100.00
2022-11-25T13:01:02.241Z,100.00
2022-11-25T13:03:34.861Z,100.00
2022-11-25T13:06:22.654Z,100.00
2022-11-25T13:09:03.792Z,100.00
2022-11-25T13:12:12.985Z,100.00
2022-11-25T13:15:08.701Z,100.00
2022-11-25T13:17:40.943Z,100.00
2022-11-25T13:20:29.233Z,100.00
2022-11-25T13:23:04.777Z,100.00
2022-11-25T13:25:32.902Z,100.00
2022-11-25T13:28:03.552Z,100.00
2022-11-25T13:30:32.956Z,100.00
2022-11-25T13:33:11.951Z,100.00
2022-11-25T13:35:53.602Z,100.00
2022-11-25T13:38:29.078Z,100.00
2022-11-25T13:41:00.193Z,100.00
2022-11-25T13:43:26.938Z,100.00
2022-11-25T13:45:54.919Z,100.00
2022-11-25T13:48:26.759Z,100.00
2022-11-25T13:51:21.394Z,100.00
2022-11-25T13:53:57.830Z,100.00
2022-11-25T13:56:34.085Z,100.00
2022-11-25T13:59:13.852Z,100.00
2022-11-25T14:01:52.141Z,100.00
2022-11-25T14:04:34.916Z,100.00
2022-11-25T14:07:22.808Z,100.00
2022-11-25T14:09:52.590Z,100.00
2022-11-25T14:12:40.713Z,100.00
2022-11-25T14:15:35.041Z,100.00
2022-11-25T14:18:09.238Z,100.00
2022-11-25T14:20:51.627Z,100.00
2022-11-25T14:23:46.640Z,100.00
2022-11-25T14:26:48.736Z,100.00
2022-11-25T14:29:33.694Z,100.00
2022-11-25T14:32:13.245Z,100.00
2022-11-25T14:34:47.529Z,100.00
2022-11-25T14:37:23.703Z,100.00
2022-11-25T14:40:04.047Z,100.00
2022-11-25T14:42:37.806Z,100.00
2022-11-25T14:45:20.412Z,100.00
2022-11-25T14:47:46.779Z,100.00
2022-11-25T14:53:06.859Z,100.00
2022-11-25T14:55:33.347Z,100.00
2022-11-25T14:57:59.967Z,100.00
2022-11-25T15:00:27.021Z,100.00
2022-11-25T15:03:00.255Z,100.00
2022-11-25T15:05:34.348Z,100.00
2022-11-25T15:08:20.349Z,100.00
2022-11-25T15:10:54.805Z,100.00
2022-11-25T15:13:39.870Z,100.00
2022-11-25T15:16:18.411Z,100.00
2022-11-25T15:18:50.385Z,100.00
2022-11-25T15:21:20.830Z,100.00
2022-11-25T15:23:47.326Z,100.00
2022-11-25T15:26:22.761Z,100.00
2022-11-25T15:28:55.917Z,100.00
2022-11-25T15:31:27.126Z,100.00
2022-11-25T15:33:56.810Z,100.00
2022-11-25T15:36:24.862Z,100.00
2022-11-25T15:38:51.654Z,100.00
2022-11-25T15:41:29.576Z,100.00
2022-11-25T15:43:59.841Z,100.00
2022-11-25T15:46:27.524Z,100.00
2022-11-25T15:48:58.602Z,100.00
2022-11-25T15:51:55.235Z,100.00
2022-11-25T15:54:28.193Z,100.00
2022-11-25T15:57:02.676Z,100.00
2022-11-25T15:59:47.463Z,100.00
2022-11-25T16:02:35.817Z,100.00
2022-11-25T16:05:16.790Z,100.00
2022-11-25T16:07:52.534Z,100.00
2022-11-25T16:10:32.226Z,100.00
2022-11-25T16:13:23.601Z,100.00
2022-11-25T16:15:55.054Z,100.00
2022-11-25T16:18:40.397Z,100.00
2022-11-25T16:21:19.922Z,100.00
2022-11-25T16:23:50.845Z,100.00
2022-11-25T16:26:37.472Z,100.00
2022-11-25T16:29:16.206Z,100.00
2022-11-25T16:31:42.796Z,100.00
2022-11-25T16:34:20.590Z,100.00
2022-11-25T16:36:47.279Z,100.00
2022-11-25T16:39:13.886Z,100.00
2022-11-25T16:41:41.927Z,100.00
2022-11-25T16:44:21.332Z,100.00
2022-11-25T16:46:47.921Z,100.00
2022-11-25T16:49:16.283Z,100.00
2022-11-25T16:51:42.843Z,100.00
2022-11-25T16:54:09.280Z,100.00
2022-11-25T16:56:41.933Z,100.00
2022-11-25T16:59:18.367Z,100.00
2022-11-25T17:01:45.763Z,100.00
2022-11-25T17:04:13.901Z,100.00
2022-11-25T17:06:41.478Z,100.00
2022-11-25T17:09:08.630Z,100.00
2022-11-25T17:11:46.614Z,100.00
2022-11-25T17:14:28.213Z,100.00
2022-11-25T17:16:55.201Z,100.00
2022-11-25T17:19:21.884Z,100.00
2022-11-25T17:21:48.503Z,100.00
2022-11-25T17:24:21.512Z,100.00
2022-11-25T17:26:56.468Z,100.00
2022-11-25T17:29:31.952Z,100.00
2022-11-25T17:31:58.897Z,100.00
2022-11-25T17:34:25.480Z,100.00
2022-11-25T17:36:52.315Z,100.00
2022-11-25T17:39:18.896Z,100.00
2022-11-25T17:41:48.257Z,100.00
2022-11-25T17:44:27.869Z,100.00
2022-11-25T17:46:57.112Z,100.00
2022-11-25T17:49:23.955Z,100.00
2022-11-25T17:51:51.262Z,100.00
2022-11-25T17:54:18.051Z,100.00
2022-11-25T17:56:50.710Z,100.00
2022-11-25T17:59:25.174Z,100.00
2022-11-25T18:01:52.265Z,100.00
2022-11-25T18:04:23.732Z,100.00
2022-11-25T18:06:50.525Z,100.00
2022-11-25T18:09:17.538Z,100.00
2022-11-25T18:11:48.393Z,100.00
2022-11-25T18:14:21.544Z,100.00
2022-11-25T18:16:48.241Z,100.00
2022-11-25T18:19:14.622Z,100.00
2022-11-25T18:21:42.146Z,100.00
2022-11-25T18:24:08.675Z,100.00
2022-11-25T18:26:42.605Z,100.00
2022-11-25T18:29:15.773Z,100.00
2022-11-25T18:31:42.266Z,100.00
2022-11-25T18:34:14.721Z,100.00
2022-11-25T18:36:41.566Z,100.00
2022-11-25T18:39:08.076Z,100.00
2022-11-25T18:41:34.625Z,100.00
2022-11-25T18:44:02.067Z,100.00
2022-11-25T18:46:35.497Z,100.00
2022-11-25T18:49:02.008Z,100.00
2022-11-25T18:51:28.708Z,100.00
2022-11-25T18:53:55.065Z,100.00
2022-11-25T18:56:21.422Z,100.00
2022-11-25T18:58:51.230Z,100.00
2022-11-25T19:01:19.646Z,100.00
2022-11-25T19:03:46.145Z,100.00
2022-11-25T19:06:16.892Z,100.00
2022-11-25T19:08:43.268Z,100.00
2022-11-25T19:11:16.458Z,100.00
2022-11-25T19:13:48.561Z,100.00
2022-11-25T19:16:18.391Z,100.00
2022-11-25T19:18:48.241Z,100.00
2022-11-25T19:21:16.564Z,100.00
2022-11-25T19:23:43.813Z,100.00
2022-11-25T19:26:15.254Z,100.00
2022-11-25T19:28:45.269Z,100.00
2022-11-25T19:31:12.664Z,100.00
2022-11-25T19:33:43.698Z,100.00
2022-11-25T19:36:23.911Z,100.00
2022-11-25T19:38:50.846Z,100.00
2022-11-25T19:41:17.363Z,100.00
2022-11-25T19:43:44.001Z,100.00
2022-11-25T19:46:46.298Z,100.00
2022-11-25T19:49:19.924Z,100.00
2022-11-25T19:51:47.404Z,100.00
2022-11-25T19:54:17.988Z,100.00
2022-11-25T19:56:45.781Z,100.00
2022-11-25T19:59:12.306Z,100.00
2022-11-25T20:01:41.956Z,100.00
2022-11-25T20:04:16.563Z,100.00
2022-11-25T20:06:43.130Z,100.00
2022-11-25T20:09:12.025Z,100.00
2022-11-25T20:11:38.624Z,100.00
2022-11-25T20:14:05.477Z,100.00
2022-11-25T20:16:37.123Z,100.00
2022-11-25T20:19:04.854Z,100.00
2022-11-25T20:21:42.605Z,100.00
2022-11-25T20:24:18.896Z,100.00
2022-11-25T20:26:48.638Z,100.00
2022-11-25T20:29:23.509Z,100.00
2022-11-25T20:31:53.386Z,100.00
2022-11-25T20:34:19.770Z,100.00
2022-11-25T20:36:46.338Z,100.00
2022-11-25T20:39:18.416Z,100.00
2022-11-25T20:41:52.827Z,100.00
2022-11-25T20:44:20.910Z,100.00
2022-11-25T20:46:47.621Z,100.00
2022-11-25T20:49:21.874Z,100.00
2022-11-25T20:51:48.572Z,100.00
2022-11-25T20:54:15.106Z,100.00
2022-11-25T20:56:42.497Z,100.00
2022-11-25T20:59:22.848Z,100.00
2022-11-25T21:01:50.661Z,100.00
2022-11-25T21:04:18.239Z,100.00
2022-11-25T21:06:44.725Z,100.00
2022-11-25T21:09:19.116Z,100.00
2022-11-25T21:11:47.005Z,100.00
2022-11-25T21:14:15.644Z,100.00
2022-11-25T21:16:42.263Z,100.00
2022-11-25T21:19:08.829Z,100.00
2022-11-25T21:21:39.187Z,100.00
2022-11-25T21:24:23.747Z,100.00
2022-11-25T21:26:50.895Z,100.00
2022-11-25T21:29:18.115Z,100.00
2022-11-25T21:31:45.195Z,100.00
2022-11-25T21:34:13.577Z,100.00
2022-11-25T21:36:42.714Z,100.00
2022-11-25T21:39:23.422Z,100.00
2022-11-25T21:41:50.054Z,100.00
2022-11-25T21:44:26.093Z,100.00
2022-11-25T21:46:53.865Z,100.00
2022-11-25T21:49:20.628Z,100.00
2022-11-25T21:51:47.230Z,100.00
2022-11-25T21:54:13.864Z,100.00
2022-11-25T21:56:40.242Z,100.00
2022-11-25T21:59:08.305Z,100.00
2022-11-25T22:01:34.731Z,100.00
2022-11-25T22:04:01.206Z,100.00
2022-11-25T22:06:31.780Z,100.00
2022-11-25T22:08:58.298Z,100.00
2022-11-25T22:11:30.537Z,100.00
2022-11-25T22:13:57.655Z,100.00
2022-11-25T22:16:30.689Z,100.00
2022-11-25T22:18:57.958Z,100.00
2022-11-25T22:21:24.433Z,100.00
2022-11-25T22:23:51.164Z,100.00
2022-11-25T22:26:19.754Z,100.00
2022-11-25T22:28:50.371Z,100.00
2022-11-25T22:31:17.447Z,100.00
2022-11-25T22:33:43.977Z,100.00
2022-11-25T22:36:29.570Z,100.00
2022-11-25T22:38:59.102Z,100.00
2022-11-25T22:41:25.645Z,100.00
2022-11-25T22:43:52.695Z,100.00
2022-11-25T22:46:19.496Z,100.00
2022-11-25T22:48:46.150Z,100.00
2022-11-25T22:51:25.249Z,100.00
2022-11-25T22:53:51.616Z,100.00
2022-11-25T22:56:19.668Z,100.00
2022-11-25T22:58:46.756Z,100.00
2022-11-25T23:01:15.427Z,100.00
2022-11-25T23:03:43.320Z,100.00
2022-11-25T23:06:13.727Z,100.00
2022-11-25T23:08:40.096Z,100.00
2022-11-25T23:11:06.727Z,100.00
2022-11-25T23:13:33.251Z,100.00
2022-11-25T23:16:01.793Z,100.00
2022-11-25T23:18:43.023Z,100.00
2022-11-25T23:21:22.781Z,100.00
2022-11-25T23:23:50.420Z,100.00
2022-11-25T23:26:17.120Z,100.00
2022-11-25T23:28:43.889Z,100.00
2022-11-25T23:31:13.678Z,100.00
2022-11-25T23:33:50.728Z,100.00
2022-11-25T23:36:27.080Z,100.00
2022-11-25T23:38:57.054Z,100.00
2022-11-25T23:41:26.838Z,100.00
2022-11-25T23:43:54.043Z,100.00
2022-11-25T23:46:28.443Z,100.00
2022-11-25T23:48:57.465Z,100.00
2022-11-25T23:51:25.352Z,100.00
2022-11-25T23:53:52.457Z,100.00
2022-11-25T23:56:19.310Z,100.00
2022-11-25T23:58:46.026Z,100.00
